DW8626 Madrid ES current weather conditions

sailwx.info

Wind from 101 at 2 knots gusting 5

Air temperature 21.1° C
Dewpoint 9.3° C

Last reported at 2017-May-27 07:02 UTC.
Time now 2017-May-27 07:58 UTC

Location: N 40°29' W 003°43'.
View on Google Maps.

See reports from other nearby stations

  
Tides and Currents Weather Stations Pressure Air Temp Water Temp Dewpoint Dewpoint Depression Visibility Wind Speed Wind Dir Waves Ship Positions
date/time (UTC)wind fromknots sea level pressurealtimeterstation pressurevisibilityair tempwater tempwave heightnotes
2017-May-27 07:02 101 2 gusting 5 21.1
2017-May-27 06:47 117 21.1
2017-May-27 06:32 150 0 gusting 2 20.6
2017-May-27 06:17 083 0 gusting 5 20.6
2017-May-27 06:02 065 20.0
2017-May-27 05:47 135 20.0
2017-May-27 05:32 060 20.0
2017-May-27 05:17 063 0 gusting 5 19.4
2017-May-27 05:02 128 19.4
2017-May-27 04:47 110 19.4
2017-May-27 04:32 062 0 gusting 5 20.0
2017-May-27 04:17 057 20.0
2017-May-27 04:02 148 20.0
2017-May-27 03:47 020 20.0
2017-May-27 03:32 060 0 gusting 4 20.6
2017-May-27 03:17 090 2 gusting 6 20.6
2017-May-27 03:02 069 1 gusting 5 21.1
2017-May-27 02:47 050 21.1
2017-May-27 02:32 032 21.7
2017-May-27 02:17 080 0 gusting 4 22.2
2017-May-27 02:02 146 3 gusting 8 22.2
2017-May-27 01:47 095 1 gusting 10 22.8
2017-May-27 01:32 177 0 gusting 8 22.8
2017-May-27 01:17 131 6 gusting 13 22.8
2017-May-27 01:02 153 6 gusting 13 23.3
2017-May-27 00:47 176 5 gusting 12 23.3
2017-May-27 00:32 158 7 gusting 15 23.9
2017-May-27 00:17 122 6 gusting 16 23.9
2017-May-27 00:02 177 2 gusting 11 24.4
2017-May-26 23:47 148 0 gusting 4 25.0
2017-May-26 23:32 125 7 gusting 12 25.6
2017-May-26 23:17 119 2 gusting 6 26.1
2017-May-26 23:02 073 26.1
2017-May-26 22:47 109 26.1
2017-May-26 22:32 153 25.6
2017-May-26 22:17 145 25.6
2017-May-26 22:02 200 26.1
2017-May-26 21:47 233 26.1
2017-May-26 21:32 166 26.7
2017-May-26 21:17 212 26.7
2017-May-26 21:02 231 26.7
2017-May-26 20:47 210 27.2
2017-May-26 20:32 239 27.2
2017-May-26 20:17 252 27.2
2017-May-26 20:02 254 0 gusting 4 27.8
2017-May-26 19:47 274 1 gusting 5 27.8
2017-May-26 19:32 257 0 gusting 6 27.8
2017-May-26 19:17 231 1 gusting 6 28.3
2017-May-26 19:02 288 3 gusting 11 28.9
2017-May-26 18:47 256 4 gusting 12 29.4
2017-May-26 18:32 262 5 gusting 10 30.0
2017-May-26 18:17 294 6 gusting 13 30.0
2017-May-26 18:02 270 6 gusting 14 30.0
2017-May-26 17:47 275 7 gusting 12 30.0
2017-May-26 17:32 113 5 gusting 13 30.6
2017-May-26 17:17 232 6 gusting 11 30.6
2017-May-26 17:02 235 6 gusting 9 30.6
2017-May-26 16:47 211 5 gusting 11 31.1
2017-May-26 16:32 274 12 gusting 16 31.1
2017-May-26 16:17 249 6 gusting 14 31.1
2017-May-26 16:02 257 8 gusting 16 31.1
2017-May-26 15:47 253 7 gusting 14 31.1
2017-May-26 15:32 200 5 gusting 11 31.7
2017-May-26 15:17 207 4 gusting 10 31.7
2017-May-26 15:02 291 5 gusting 14 31.1
2017-May-26 14:47 211 6 gusting 12 31.7
2017-May-26 14:32 217 4 gusting 10 31.1
2017-May-26 14:17 262 5 gusting 12 31.1
2017-May-26 14:02 177 4 gusting 13 30.6
2017-May-26 13:47 205 0 gusting 9 30.6
2017-May-26 13:32 222 8 gusting 17 30.6
2017-May-26 13:17 290 3 gusting 10 31.1
2017-May-26 13:02 146 2 gusting 6 31.1
2017-May-26 12:47 214 3 gusting 8 30.6
2017-May-26 12:32 326 0 gusting 13 30.0
2017-May-26 12:17 195 0 gusting 9 29.4
2017-May-26 12:02 179 2 gusting 6 29.4
2017-May-26 11:47 211 2 gusting 11 29.4
2017-May-26 11:32 115 0 gusting 4 29.4
2017-May-26 11:17 304 29.4
2017-May-26 11:02 151 2 gusting 6 28.9
2017-May-26 10:47 070 0 gusting 5 29.4
2017-May-26 10:32 124 28.9
2017-May-26 10:02 235 27.2
2017-May-26 09:47 094 26.7
2017-May-26 09:32 060 26.7
2017-May-26 09:17 058 0 gusting 4 25.6
2017-May-26 09:02 088 0 gusting 4 25.6
2017-May-26 08:47 357 1 gusting 6 23.9
2017-May-26 08:32 115 0 gusting 5 23.9
2017-May-26 08:17 070 1 gusting 5 23.9
2017-May-26 08:02 026 7 gusting 9 22.8
2017-May-26 07:47 058 3 gusting 8 22.2
2017-May-26 07:32 032 7 gusting 9 21.1
2017-May-26 07:17 020 1 gusting 9 21.1
2017-May-26 07:02 051 5 gusting 8 21.1
2017-May-26 06:47 049 5 gusting 6 20.6
2017-May-26 06:32 037 3 gusting 6 20.0
2017-May-26 06:17 039 6 gusting 6 20.0
2017-May-26 06:02 032 20.0
2017-May-26 05:47 032 3 gusting 4 19.4
2017-May-26 05:32 001 2 gusting 3 20.0
2017-May-26 05:17 015 20.6
2017-May-26 05:02 032 20.6
2017-May-26 04:47 048 20.6
2017-May-26 04:32 163 20.6
2017-May-26 04:17 110 20.6
2017-May-26 04:02 106 20.6
2017-May-26 03:47 120 20.6
2017-May-26 03:32 153 21.1
2017-May-26 03:17 101 21.1
2017-May-26 03:02 004 6 gusting 9 21.1
2017-May-26 02:47 038 6 gusting 9 21.7
2017-May-26 02:32 036 7 gusting 9 21.7
2017-May-26 02:17 030 1 gusting 5 21.7
2017-May-26 02:02 032 2 gusting 6 21.7
2017-May-26 01:47 059 1 gusting 5 22.2
2017-May-26 01:32 087 1 gusting 4 22.8
2017-May-26 01:17 057 22.2
2017-May-26 01:02 032 0 gusting 4 22.2
2017-May-26 00:47 032 3 gusting 5 22.2
2017-May-26 00:32 023 6 gusting 7 22.2
2017-May-26 00:17 355 4 gusting 6 22.2
2017-May-26 00:02 291 23.3
2017-May-25 23:47 240 23.3
2017-May-25 23:32 243 23.3
2017-May-25 23:17 228 23.9
2017-May-25 23:02 169 1 gusting 11 23.9
2017-May-25 22:47 191 4 gusting 9 23.9
2017-May-25 22:32 203 4 gusting 6 24.4
2017-May-25 22:17 169 2 gusting 7 24.4
2017-May-25 22:02 144 0 gusting 12 25.0
2017-May-25 21:47 022 8 gusting 15 25.6
2017-May-25 21:32 117 3 gusting 13 26.1
2017-May-25 21:17 118 26.1
2017-May-25 21:02 340 1 gusting 4 26.1
2017-May-25 20:47 302 26.7
2017-May-25 20:32 352 1 gusting 4 27.2
2017-May-25 20:17 267 27.8
2017-May-25 20:02 257 28.9
2017-May-25 19:47 222 29.4
2017-May-25 19:32 228 30.0
2017-May-25 19:17 226 30.0
2017-May-25 19:02 280 31.1
2017-May-25 18:47 237 31.7
2017-May-25 18:32 221 0 gusting 6 31.1
2017-May-25 18:17 158 3 gusting 6 31.7
2017-May-25 18:02 253 0 gusting 3 32.2
2017-May-25 17:47 309 31.7
2017-May-25 17:32 298 0 gusting 4 31.1
2017-May-25 17:18 285 1 gusting 6 31.1
2017-May-25 17:02 349 0 gusting 6 31.1
2017-May-25 16:47 246 4 gusting 8 31.7
2017-May-25 16:32 179 32.2
2017-May-25 16:17 166 3 gusting 7 32.2
2017-May-25 16:02 107 0 gusting 4 31.7
2017-May-25 15:47 099 31.7
2017-May-25 15:32 148 3 gusting 7 31.7
2017-May-25 15:17 346 0 gusting 5 31.7
2017-May-25 15:02 101 0 gusting 2 31.7
2017-May-25 14:47 107 0 gusting 3 31.1
2017-May-25 14:32 008 30.6
2017-May-25 14:17 326 1 gusting 6 31.7
2017-May-25 14:02 140 31.1
2017-May-25 13:47 136 31.7
2017-May-25 13:32 169 31.1
2017-May-25 13:17 079 3 gusting 6 30.6
2017-May-25 13:05 107 2 gusting 6 30.6
2017-May-25 12:47 077 1 gusting 7 30.0
2017-May-25 12:32 262 0 gusting 5 30.0
2017-May-25 12:17 096 2 gusting 6 30.6
2017-May-25 12:02 124 0 gusting 6 30.6
2017-May-25 11:47 135 1 gusting 5 29.4
2017-May-25 11:32 117 0 gusting 4 29.4
2017-May-25 11:17 070 0 gusting 4 29.4
2017-May-25 11:02 271 2 gusting 6 28.9
2017-May-25 10:47 144 0 gusting 6 28.9
2017-May-25 10:32 333 27.8
2017-May-25 10:17 079 0 gusting 6 26.7
2017-May-25 10:02 063 0 gusting 6 26.1
2017-May-25 09:47 075 26.1
2017-May-25 09:32 069 26.7
2017-May-25 09:17 148 4 gusting 8 24.4
2017-May-25 09:02 068 0 gusting 6 24.4
2017-May-25 08:47 071 3 gusting 6 24.4
2017-May-25 08:32 054 5 gusting 6 23.3
2017-May-25 08:17 064 5 gusting 6 23.3
2017-May-25 08:02 027 25.0
2017-May-25 07:47 012 23.3
2017-May-25 07:32 101 1 gusting 5 23.3
2017-May-25 07:17 020 1 gusting 6 22.2
2017-May-25 07:02 025 21.7